Time;durP1;ratioP1;P1;durP2;ratioP2;P2;SDS_P1;SDS_P2;PMS_P1;PMS_P2;Temp;Humidity;BMP_temperature;BMP_pressure;BME280_temperature;BME280_humidity;BME280_pressure;Samples;Min_cycle;Max_cycle;Signal;HPM_P1;HPM_P2
2023/01/11 00:00:11;;;;;;;3.93;1.83;;;;;;;-12.85;43.39;101920.00;4776736;30;20398;-87
2023/01/11 00:02:40;;;;;;;4.40;1.80;;;;;;;-12.71;43.28;101939.22;4775379;29;20074;-87
2023/01/11 00:05:08;;;;;;;4.60;1.73;;;;;;;-11.28;43.18;102224.53;4775121;30;20054;-85
2023/01/11 00:07:34;;;;;;;4.50;1.60;;;;;;;-12.22;43.22;102049.50;4774667;30;20100;-85
2023/01/11 00:10:03;;;;;;;2.67;1.53;;;;;;;-12.60;43.30;102004.09;4789868;30;20051;-85
2023/01/11 00:12:30;;;;;;;2.47;1.30;;;;;;;-11.91;43.69;102115.88;4775516;30;20051;-85
2023/01/11 00:14:56;;;;;;;4.17;1.80;;;;;;;-11.36;43.91;102223.59;4785020;29;20043;-83
2023/01/11 00:17:22;;;;;;;5.07;1.93;;;;;;;-11.78;43.95;102145.84;4820701;29;20055;-86
2023/01/11 00:19:50;;;;;;;5.63;1.40;;;;;;;-12.52;43.09;102032.63;4810583;29;20654;-85
2023/01/11 00:22:16;;;;;;;4.90;1.50;;;;;;;-12.09;43.47;102076.94;4778213;29;20100;-86
2023/01/11 00:24:42;;;;;;;6.13;1.90;;;;;;;-12.94;43.10;101949.91;4793456;29;20058;-84
2023/01/11 00:27:08;;;;;;;3.90;1.90;;;;;;;-13.13;43.20;101878.25;4777148;29;20050;-84
2023/01/11 00:29:34;;;;;;;3.37;1.60;;;;;;;-12.24;43.54;102040.88;4806954;29;20054;-87
2023/01/11 00:32:00;;;;;;;4.23;1.60;;;;;;;-12.18;43.61;102045.75;4791965;29;20057;-84
2023/01/11 00:34:26;;;;;;;5.67;1.80;;;;;;;-11.24;42.80;102214.09;4807904;29;20484;-86
2023/01/11 00:36:53;;;;;;;4.60;2.00;;;;;;;-11.56;43.08;102130.78;4792452;29;20133;-86
2023/01/11 00:39:19;;;;;;;4.60;1.77;;;;;;;-12.26;43.76;102038.22;4793243;29;20042;-84
2023/01/11 00:50:01;;;;;;;6.77;1.90;;;;;;;-11.39;43.30;102178.91;4819060;29;20078;-82
2023/01/11 00:52:29;;;;;;;10.00;2.23;;;;;;;-12.35;43.27;102023.66;4816239;29;20053;-83
2023/01/11 00:54:55;;;;;;;3.83;1.80;;;;;;;-11.59;43.53;102143.00;4791793;29;20056;-86
2023/01/11 00:57:21;;;;;;;4.47;2.00;;;;;;;-11.55;43.25;102138.50;4792334;29;20050;-85
2023/01/11 00:59:47;;;;;;;4.03;1.70;;;;;;;-11.76;43.90;102131.88;4799024;29;20058;-82
2023/01/11 01:02:13;;;;;;;3.40;1.93;;;;;;;-11.35;44.16;102180.13;4800819;29;20117;-84
2023/01/11 01:04:39;;;;;;;3.80;1.70;;;;;;;-11.60;43.35;102126.13;4815601;29;20478;-84
2023/01/11 01:07:06;;;;;;;3.30;1.50;;;;;;;-11.38;44.18;102159.69;4800536;29;20046;-84
2023/01/11 01:09:32;;;;;;;5.30;1.43;;;;;;;-11.90;43.35;102079.06;4814190;29;20051;-86
2023/01/11 01:12:01;;;;;;;4.33;1.50;;;;;;;-11.96;43.52;102069.22;4821249;29;20109;-82
2023/01/11 01:14:28;;;;;;;5.47;1.97;;;;;;;-11.31;43.90;102182.31;4798321;29;20073;-83
2023/01/11 01:16:58;;;;;;;3.93;1.60;;;;;;;-11.72;43.81;102097.94;4806540;29;20059;-83
2023/01/11 01:19:26;;;;;;;5.13;1.87;;;;;;;-11.15;43.58;102186.63;4777130;30;20051;-83
2023/01/11 01:21:54;;;;;;;2.93;1.67;;;;;;;-11.34;43.91;102154.28;4778989;30;20095;-83
2023/01/11 01:24:20;;;;;;;3.27;1.70;;;;;;;-11.63;43.75;102099.03;4792860;29;20080;-83
2023/01/11 01:26:47;;;;;;;3.77;1.57;;;;;;;-12.23;43.06;101997.50;4789114;30;20508;-82
2023/01/11 01:29:14;;;;;;;3.40;1.40;;;;;;;-12.82;43.38;101917.88;4805115;29;20054;-83
2023/01/11 01:31:43;;;;;;;4.43;1.93;;;;;;;-11.29;43.62;102165.78;4803510;30;20062;-84
2023/01/11 01:34:10;;;;;;;5.07;1.67;;;;;;;-12.11;43.60;102018.13;4803595;29;20043;-83
2023/01/11 01:36:36;;;;;;;5.00;2.00;;;;;;;-11.59;43.15;102105.28;4810794;29;20051;-83
2023/01/11 01:39:04;;;;;;;4.10;1.93;;;;;;;-11.07;43.83;102176.72;4779265;30;20066;-81
2023/01/11 01:41:30;;;;;;;3.73;1.93;;;;;;;-11.04;43.03;102198.81;4795516;29;20059;-83
2023/01/11 01:44:02;;;;;;;4.33;1.83;;;;;;;-11.52;43.31;102080.16;4795606;29;20039;-84
2023/01/11 01:46:30;;;;;;;;;;;;;;;-10.84;43.97;102173.47;4781468;29;20030;-84
2023/01/11 01:49:02;;;;;;;4.93;1.77;;;;;;;-10.90;43.04;102177.78;4794563;29;19934;-85
2023/01/11 01:51:47;;;;;;;4.50;1.87;;;;;;;-10.88;43.56;102172.91;4781014;30;20123;-83
2023/01/11 01:54:22;;;;;;;4.70;1.90;;;;;;;-11.92;43.32;102023.66;4784268;30;20043;-83
2023/01/11 01:56:53;;;;;;;3.20;1.70;;;;;;;-11.66;43.41;102071.03;4784529;30;20043;-83
2023/01/11 01:59:21;;;;;;;7.60;2.43;;;;;;;-11.73;43.42;102040.88;4794665;29;20086;-85
2023/01/11 02:01:48;;;;;;;3.87;1.80;;;;;;;-11.96;43.47;102008.94;4778538;30;20100;-85
2023/01/11 02:04:25;;;;;;;5.77;2.70;;;;;;;-11.86;43.46;102046.06;4774106;30;20146;-86
2023/01/11 02:06:57;;;;;;;3.67;1.53;;;;;;;-11.93;42.98;102064.56;4789154;29;20050;-86
2023/01/11 02:09:37;;;;;;;3.75;1.70;;;;;;;-11.77;43.53;102081.41;4788467;30;20126;-86
2023/01/11 02:12:05;;;;;;;4.50;1.97;;;;;;;-11.17;43.41;102183.03;4789850;29;20057;-85
2023/01/11 02:14:33;;;;;;;7.50;2.20;;;;;;;-11.26;43.41;102163.63;4781265;29;20107;-82
2023/01/11 02:17:20;;;;;;;4.90;1.57;;;;;;;-11.51;43.29;102150.72;4784727;29;20471;-85
2023/01/11 02:20:34;;;;;;;6.00;2.70;;;;;;;-11.46;43.43;102140.28;4794166;29;20103;-85
2023/01/11 02:23:30;;;;;;;4.13;1.23;;;;;;;-11.93;43.53;102069.59;4808937;29;20053;-83
2023/01/11 02:26:27;;;;;;;6.07;2.37;;;;;;;-11.31;43.33;102162.19;4819375;29;20046;-84
2023/01/11 02:29:14;;;;;;;3.27;1.73;;;;;;;-11.30;43.87;102168.13;4805572;29;20065;-85
2023/01/11 02:32:12;;;;;;;5.57;2.23;;;;;;;-11.80;43.33;102071.91;4805406;29;20046;-86
2023/01/11 02:34:43;;;;;;;5.03;1.47;;;;;;;-11.72;44.18;102092.91;4806722;29;20050;-83
2023/01/11 02:37:33;;;;;;;6.33;2.00;;;;;;;-11.29;43.67;102172.44;4790411;29;20135;-86
2023/01/11 02:40:16;;;;;;;4.60;2.00;;;;;;;-12.10;43.52;102024.94;4806407;29;20123;-85
2023/01/11 02:46:18;;;;;;;2.97;1.10;;;;;;;-12.03;43.63;102047.56;4805034;29;20053;-85
2023/01/11 02:49:10;;;;;;;7.10;2.03;;;;;;;-11.28;43.90;102167.56;4807388;29;20523;-84
2023/01/11 02:51:52;;;;;;;6.80;2.60;;;;;;;-12.42;43.42;101982.78;4804762;29;20203;-87
2023/01/11 02:54:21;;;;;;;4.63;1.57;;;;;;;-12.17;43.75;102022.44;4806577;29;20475;-84
2023/01/11 02:56:51;;;;;;;4.73;2.17;;;;;;;-11.81;43.64;102061.00;4793862;29;20140;-85
2023/01/11 02:59:22;;;;;;;4.43;2.20;;;;;;;-11.92;43.33;102032.81;4808175;29;20058;-87
2023/01/11 03:01:54;;;;;;;3.23;1.43;;;;;;;-11.88;43.06;102067.59;4793554;29;20126;-86
2023/01/11 03:04:26;;;;;;;5.70;2.23;;;;;;;-12.14;43.74;102023.69;4808439;29;20454;-86
2023/01/11 03:06:57;;;;;;;7.37;2.27;;;;;;;-12.43;43.46;101975.09;4793470;29;20095;-85
2023/01/11 03:09:29;;;;;;;7.03;2.40;;;;;;;-11.70;43.59;102083.94;4809360;29;20050;-83
2023/01/11 03:15:17;;;;;;;5.10;2.27;;;;;;;-11.26;43.36;102140.13;4800753;29;20050;-84
2023/01/11 03:18:02;;;;;;;5.80;1.80;;;;;;;-11.29;43.40;102140.63;4776519;30;20059;-86
2023/01/11 03:20:37;;;;;;;7.30;1.83;;;;;;;-11.88;43.72;102027.41;4778863;30;20104;-86
2023/01/11 03:23:14;;;;;;;4.53;2.00;;;;;;;-11.89;43.03;102024.03;4791630;29;20107;-87
2023/01/11 03:26:16;;;;;;;6.93;2.33;;;;;;;-11.65;43.33;102067.78;4788368;29;20051;-83
2023/01/11 03:28:52;;;;;;;2.90;1.45;;;;;;;-11.43;43.86;102087.88;4766101;30;20515;-88
2023/01/11 03:31:32;;;;;;;6.13;1.90;;;;;;;-11.89;43.83;102016.47;4801567;29;20071;-85
2023/01/11 03:34:05;;;;;;;5.10;2.67;;;;;;;-11.40;43.56;102108.34;4791744;29;20043;-83
2023/01/11 03:36:41;;;;;;;3.97;1.93;;;;;;;-12.24;42.96;101997.31;4792070;29;20134;-85
2023/01/11 03:39:10;;;;;;;4.37;1.80;;;;;;;-11.98;43.83;102027.97;4789848;30;20122;-82
2023/01/11 03:41:40;;;;;;;4.80;1.90;;;;;;;-12.12;43.87;102024.78;4776428;30;20058;-81
2023/01/11 03:44:09;;;;;;;4.57;1.60;;;;;;;-12.41;43.83;101941.03;4792719;30;20043;-87
2023/01/11 03:46:49;;;;;;;3.73;1.70;;;;;;;-12.55;43.85;101916.84;4791006;29;20513;-83
2023/01/11 03:49:25;;;;;;;4.83;1.90;;;;;;;-11.94;44.27;101989.03;4778494;30;20051;-82
2023/01/11 03:51:53;;;;;;;2.77;1.77;;;;;;;-12.11;43.87;101966.31;4794974;30;20081;-83
2023/01/11 03:54:23;;;;;;;4.87;1.80;;;;;;;-11.32;43.73;102109.22;4774860;30;20043;-83
2023/01/11 03:57:09;;;;;;;7.37;2.33;;;;;;;-12.02;43.53;102024.22;4790514;29;20091;-82
2023/01/11 03:59:36;;;;;;;3.23;1.73;;;;;;;-11.58;43.95;102094.53;4774886;30;20415;-84
2023/01/11 04:02:03;;;;;;;5.13;2.40;;;;;;;-13.14;43.98;101834.75;4790212;30;20043;-84
2023/01/11 04:04:29;;;;;;;4.83;1.77;;;;;;;-12.25;44.34;101961.31;4789963;30;20047;-85
2023/01/11 04:06:55;;;;;;;3.43;1.90;;;;;;;-12.08;43.89;102005.94;4773676;29;20039;-83
2023/01/11 04:09:22;;;;;;;6.40;2.00;;;;;;;-12.15;43.62;101981.72;4790100;29;20139;-82
2023/01/11 04:11:48;;;;;;;7.77;2.30;;;;;;;-11.35;43.86;102124.84;4774037;30;20062;-83
2023/01/11 04:14:14;;;;;;;4.53;2.40;;;;;;;-11.92;43.90;102015.25;4763675;29;20043;-84
2023/01/11 04:16:40;;;;;;;4.33;1.77;;;;;;;-11.67;43.75;102070.09;4807290;29;20097;-81
2023/01/11 04:19:06;;;;;;;2.93;1.70;;;;;;;-11.87;43.46;102032.63;4807884;29;20050;-80
2023/01/11 04:21:35;;;;;;;5.97;1.97;;;;;;;-13.08;43.66;101855.50;4776737;29;20053;-82
2023/01/11 04:24:03;;;;;;;3.47;1.87;;;;;;;-11.90;44.02;102034.78;4806739;29;20258;-84
2023/01/11 04:26:29;;;;;;;3.23;1.50;;;;;;;-12.14;43.59;101995.19;4792100;29;20106;-83
2023/01/11 04:28:55;;;;;;;6.87;1.77;;;;;;;-12.23;43.73;101958.97;4792178;29;20043;-84
2023/01/11 04:31:21;;;;;;;4.57;2.30;;;;;;;-13.05;44.10;101828.28;4794513;29;20047;-81
2023/01/11 04:33:47;;;;;;;5.80;2.17;;;;;;;-12.63;43.87;101899.97;4807630;29;20043;-86
2023/01/11 04:36:14;;;;;;;2.90;1.57;;;;;;;-11.38;43.55;102114.44;4778365;29;20045;-85
2023/01/11 04:38:40;;;;;;;3.60;1.67;;;;;;;-12.47;42.99;101926.16;4791419;29;20074;-82
2023/01/11 04:43:57;;;;;;;5.83;2.20;;;;;;;-12.11;43.72;101981.38;4815603;29;20043;-82
2023/01/11 04:46:23;;;;;;;7.43;2.30;;;;;;;-11.46;43.57;102055.72;4794262;29;20046;-81
2023/01/11 04:48:55;;;;;;;4.80;1.70;;;;;;;-11.69;43.14;102071.53;4807478;29;20065;-84
2023/01/11 04:51:21;;;;;;;3.08;1.20;;;;;;;-11.45;44.18;102066.69;4777290;29;20191;-82
2023/01/11 04:53:48;;;;;;;2.80;1.60;;;;;;;-11.35;43.60;102087.13;4812896;29;20050;-82
2023/01/11 04:56:14;;;;;;;4.40;2.00;;;;;;;-12.44;43.23;101924.00;4807323;29;20078;-81
2023/01/11 04:58:40;;;;;;;4.60;1.83;;;;;;;-11.77;43.68;102011.06;4791570;29;20047;-81
2023/01/11 05:01:12;;;;;;;5.97;2.30;;;;;;;-11.90;43.52;101993.69;4806872;29;20057;-86
2023/01/11 05:03:39;;;;;;;3.57;1.63;;;;;;;-11.75;43.20;102019.69;4805320;29;20429;-83
2023/01/11 05:06:05;;;;;;;4.87;1.83;;;;;;;-11.41;43.19;102083.94;4807208;29;20141;-83
2023/01/11 05:08:32;;;;;;;6.07;2.60;;;;;;;-11.94;43.07;101969.84;4805712;29;20131;-83
2023/01/11 05:11:00;;;;;;;2.97;1.43;;;;;;;-12.13;43.64;101957.69;4805527;29;20145;-82
2023/01/11 05:13:42;;;;;;;2.93;1.60;;;;;;;-11.40;44.00;102070.63;4807005;29;20097;-83
2023/01/11 05:16:11;;;;;;;4.80;1.88;;;;;;;-11.48;43.80;102073.88;4788418;29;20091;-84
2023/01/11 05:18:41;;;;;;;3.93;1.63;;;;;;;-11.44;43.70;102051.78;4794459;29;20559;-84
2023/01/11 05:21:09;;;;;;;3.13;1.63;;;;;;;-11.50;43.08;102074.59;4788172;29;20137;-84
2023/01/11 05:23:36;;;;;;;4.10;1.77;;;;;;;-11.76;43.82;102018.81;4789143;29;20051;-83
2023/01/11 05:26:04;;;;;;;4.70;1.57;;;;;;;-11.46;43.66;102069.91;4788743;30;20047;-82
2023/01/11 05:28:30;;;;;;;3.87;1.77;;;;;;;-11.45;43.52;102066.69;4773733;29;20564;-84
2023/01/11 05:30:56;;;;;;;3.53;1.87;;;;;;;-11.51;43.37;102056.81;4791807;30;20370;-82
2023/01/11 05:33:22;;;;;;;4.33;1.47;;;;;;;-11.77;43.04;102021.13;4789406;29;20062;-81
2023/01/11 05:35:48;;;;;;;3.40;1.60;;;;;;;-11.63;43.76;102035.28;4772734;30;20122;-83
2023/01/11 05:38:14;;;;;;;4.47;1.50;;;;;;;-11.36;43.27;102058.59;4773430;30;20050;-84
2023/01/11 05:40:40;;;;;;;3.77;1.47;;;;;;;-11.49;43.48;102055.41;4791286;29;20047;-83
2023/01/11 05:43:06;;;;;;;3.03;1.50;;;;;;;-11.42;42.97;102055.34;4781966;30;20082;-84
2023/01/11 05:45:34;;;;;;;5.07;2.13;;;;;;;-11.76;43.83;101995.28;4797658;30;20051;-83
2023/01/11 05:48:00;;;;;;;3.07;1.50;;;;;;;-11.29;43.48;102065.22;4805239;29;20061;-84
2023/01/11 05:50:26;;;;;;;3.90;1.50;;;;;;;-11.47;44.11;102012.81;4801227;29;20054;-83
2023/01/11 05:52:52;;;;;;;6.27;1.70;;;;;;;-11.50;43.55;102005.84;4784718;30;20051;-82
2023/01/11 05:55:18;;;;;;;4.77;1.57;;;;;;;-11.14;43.30;102065.19;4805731;29;20077;-83
2023/01/11 05:57:45;;;;;;;4.03;1.60;;;;;;;-11.48;43.21;102003.50;4782224;30;20047;-83
2023/01/11 06:00:12;;;;;;;4.87;2.40;;;;;;;-11.33;43.60;102020.31;4778830;29;20043;-83
2023/01/11 06:02:38;;;;;;;4.63;2.40;;;;;;;-11.33;43.71;102012.78;4794233;29;20047;-82
2023/01/11 06:05:05;;;;;;;5.23;2.13;;;;;;;-11.06;43.44;102047.75;4795252;29;20043;-82
2023/01/11 06:07:31;;;;;;;5.03;1.40;;;;;;;-10.96;43.18;102077.34;4798787;29;20047;-81
2023/01/11 06:09:57;;;;;;;6.27;2.20;;;;;;;-10.99;43.31;102077.00;4785020;30;20062;-83
2023/01/11 06:12:23;;;;;;;1.77;1.20;;;;;;;-11.03;43.18;102066.41;4775778;29;20150;-84
2023/01/11 06:14:50;;;;;;;5.17;1.67;;;;;;;-11.19;43.96;102052.06;4799941;29;20078;-83
2023/01/11 06:17:19;;;;;;;4.53;1.63;;;;;;;-11.98;43.64;101898.28;4793088;29;20066;-82
2023/01/11 06:19:48;;;;;;;4.93;2.10;;;;;;;-10.93;43.55;102065.13;4793316;29;20421;-83
2023/01/11 06:22:17;;;;;;;4.97;2.13;;;;;;;-11.40;43.26;101981.03;4807161;29;20203;-83
2023/01/11 06:24:43;;;;;;;3.53;1.57;;;;;;;-11.96;43.47;101878.34;4790822;29;20044;-83
2023/01/11 06:27:09;;;;;;;4.40;1.67;;;;;;;-11.14;43.39;101989.75;4778281;29;20067;-84
2023/01/11 06:29:35;;;;;;;4.07;1.77;;;;;;;-11.36;43.27;101925.34;4799108;29;20046;-81
2023/01/11 06:32:01;;;;;;;3.77;1.80;;;;;;;-10.79;42.96;102038.09;4815212;29;20117;-82
2023/01/11 06:34:28;;;;;;;2.83;1.67;;;;;;;-10.87;43.59;102013.69;4806647;29;20073;-83
2023/01/11 06:36:54;;;;;;;2.43;1.30;;;;;;;-10.92;43.51;102014.06;4810920;29;20039;-83
2023/01/11 06:39:20;;;;;;;5.10;1.43;;;;;;;-11.07;42.59;101985.59;4800799;29;20042;-81
2023/01/11 06:41:45;;;;;;;5.37;1.70;;;;;;;-10.83;42.97;102051.97;4808247;29;20042;-83
2023/01/11 06:44:12;;;;;;;2.23;1.43;;;;;;;-10.75;43.15;102045.28;4806893;29;20054;-83
2023/01/11 06:46:38;;;;;;;6.47;1.97;;;;;;;-10.83;43.58;102019.25;4807239;29;20046;-84
2023/01/11 06:49:04;;;;;;;3.33;1.03;;;;;;;-10.79;42.56;102023.88;4790437;29;20448;-82
2023/01/11 06:51:30;;;;;;;2.37;1.27;;;;;;;-10.56;43.48;102067.47;4790383;29;20051;-83
2023/01/11 06:53:56;;;;;;;2.93;1.60;;;;;;;-11.07;43.47;101941.91;4806728;29;20537;-80
2023/01/11 06:56:22;;;;;;;5.13;1.63;;;;;;;-10.73;43.23;101990.97;4776105;29;20142;-84
2023/01/11 06:58:49;;;;;;;1.93;1.30;;;;;;;-10.46;42.93;102047.59;4806701;29;20035;-81
2023/01/11 07:01:17;;;;;;;7.30;2.10;;;;;;;-10.60;43.02;101996.63;4807649;29;20054;-81
2023/01/11 07:03:44;;;;;;;5.43;1.33;;;;;;;-10.36;42.44;102049.50;4791350;29;20047;-81
2023/01/11 07:06:11;;;;;;;2.70;1.20;;;;;;;-10.50;43.03;101992.63;4791580;29;20066;-84
2023/01/11 07:08:37;;;;;;;3.13;1.40;;;;;;;-10.29;43.06;102006.66;4808143;29;20042;-83
2023/01/11 07:11:03;;;;;;;4.30;1.30;;;;;;;-10.19;42.78;102039.69;4778768;29;20038;-83
2023/01/11 07:13:29;;;;;;;3.50;1.50;;;;;;;-10.70;42.90;101940.97;4792738;29;20149;-82
2023/01/11 07:15:56;;;;;;;2.77;1.17;;;;;;;-10.64;42.52;101959.25;4766384;29;20067;-82
2023/01/11 07:18:22;;;;;;;4.17;1.43;;;;;;;-10.66;42.38;101968.25;4796590;29;20525;-82
2023/01/11 07:20:50;;;;;;;4.87;1.80;;;;;;;-10.39;43.34;101966.13;4783418;29;20043;-83
2023/01/11 07:23:16;;;;;;;5.37;1.60;;;;;;;-10.48;43.30;101928.25;4803839;29;20039;-83
2023/01/11 07:25:42;;;;;;;3.47;1.73;;;;;;;-10.06;43.03;101981.47;4794084;29;20039;-83
2023/01/11 07:28:11;;;;;;;3.23;1.40;;;;;;;-9.89;42.68;101985.78;4806966;29;20054;-84
2023/01/11 07:30:38;;;;;;;2.97;1.67;;;;;;;-10.82;42.82;101834.84;4773202;30;20130;-83
2023/01/11 07:33:06;;;;;;;6.53;1.73;;;;;;;-10.05;42.66;102010.97;4788758;30;20047;-84
2023/01/11 07:35:34;;;;;;;2.97;1.63;;;;;;;-10.42;42.58;101913.78;4788141;30;20043;-83
2023/01/11 07:38:01;;;;;;;5.40;1.77;;;;;;;-9.75;42.73;102030.13;4772991;30;20051;-83
2023/01/11 07:40:30;;;;;;;2.03;1.40;;;;;;;-11.25;42.66;101767.28;4789810;29;20062;-81
2023/01/11 07:43:13;;;;;;;2.70;1.10;;;;;;;-9.66;42.33;102042.84;4796982;30;20073;-85
2023/01/11 07:45:46;;;;;;;2.90;1.50;;;;;;;-10.39;42.96;101909.09;4794042;29;20040;-84
2023/01/11 07:48:14;;;;;;;4.97;1.67;;;;;;;-9.91;42.93;101959.53;4791346;29;20086;-85
2023/01/11 07:50:40;;;;;;;3.20;1.43;;;;;;;-9.70;42.19;101996.25;4792549;30;20047;-83
2023/01/11 07:53:07;;;;;;;2.37;1.27;;;;;;;-9.61;42.27;102023.19;4797523;29;20436;-85
2023/01/11 07:55:34;;;;;;;2.70;1.67;;;;;;;-10.01;42.69;101929.94;4802493;30;20043;-85
2023/01/11 07:58:02;;;;;;;3.63;1.60;;;;;;;-9.61;43.15;102008.94;4800080;29;20127;-85
2023/01/11 08:00:28;;;;;;;2.63;1.40;;;;;;;-9.73;42.40;102010.16;4782823;30;20050;-84
2023/01/11 08:02:55;;;;;;;2.23;1.33;;;;;;;-10.28;42.56;101905.19;4795222;30;20086;-85
2023/01/11 08:05:23;;;;;;;3.77;1.73;;;;;;;-10.16;42.66;101904.03;4782371;30;20047;-83
2023/01/11 08:07:57;;;;;;;2.37;1.00;;;;;;;-11.02;42.25;101779.84;4794958;29;20050;-84
2023/01/11 08:10:24;;;;;;;2.07;1.37;;;;;;;-10.88;42.64;101775.41;4801875;29;20138;-85
2023/01/11 08:15:35;;;;;;;3.20;1.33;;;;;;;-10.00;42.45;101933.38;4805685;29;20464;-83
2023/01/11 08:18:05;;;;;;;4.50;2.20;;;;;;;-10.37;42.48;101842.16;4792320;29;20039;-86
2023/01/11 08:20:36;;;;;;;5.40;1.27;;;;;;;-10.27;42.47;101858.25;4795571;29;20049;-84
2023/01/11 08:23:12;;;;;;;3.43;1.50;;;;;;;-9.74;42.10;101952.91;4780283;29;20117;-84
2023/01/11 08:25:45;;;;;;;4.83;1.43;;;;;;;-9.75;41.78;101930.97;4798741;29;20058;-85
2023/01/11 08:28:11;;;;;;;6.60;1.50;;;;;;;-10.39;42.45;101803.34;4794616;29;20424;-83
2023/01/11 08:30:37;;;;;;;4.50;1.70;;;;;;;-9.77;42.58;101885.41;4810511;29;20092;-83
2023/01/11 08:33:04;;;;;;;3.27;1.50;;;;;;;-10.29;42.27;101807.72;4815583;29;20042;-81
2023/01/11 08:35:36;;;;;;;4.33;1.57;;;;;;;-10.16;42.37;101838.53;4797675;29;20045;-81
2023/01/11 08:38:02;;;;;;;4.20;1.65;;;;;;;-10.29;41.77;101801.06;4802075;29;20047;-84
2023/01/11 08:40:28;;;;;;;3.83;1.30;;;;;;;-9.60;41.26;101914.06;4794751;29;20053;-82
2023/01/11 08:42:55;;;;;;;3.50;1.40;;;;;;;-9.18;41.71;102005.06;4809792;29;20077;-81
2023/01/11 08:45:23;;;;;;;2.27;1.50;;;;;;;-9.47;41.67;101949.00;4808259;29;20050;-80
2023/01/11 08:47:50;;;;;;;1.30;0.80;;;;;;;-9.16;41.17;102007.75;4794760;29;20066;-83
2023/01/11 08:50:21;;;;;;;3.40;1.43;;;;;;;-9.87;41.23;101893.63;4811786;29;20042;-84
2023/01/11 08:52:51;;;;;;;5.47;1.55;;;;;;;-9.69;41.20;101921.50;4813769;29;20047;-83
2023/01/11 08:55:18;;;;;;;4.20;1.53;;;;;;;-9.93;41.48;101887.97;4814375;29;20039;-80
2023/01/11 08:57:46;;;;;;;3.90;1.57;;;;;;;-9.78;41.28;101936.56;4811490;29;20076;-84
2023/01/11 09:00:13;;;;;;;3.37;0.97;;;;;;;-9.99;40.87;101847.84;4796215;29;20038;-83
2023/01/11 09:02:39;;;;;;;3.53;1.53;;;;;;;-9.90;41.30;101880.69;4808527;29;20529;-81
2023/01/11 09:05:05;;;;;;;2.83;1.37;;;;;;;-9.87;41.22;101860.00;4809757;29;20131;-82
2023/01/11 09:07:31;;;;;;;5.03;1.57;;;;;;;-9.65;41.15;101889.97;4807732;29;20074;-84
2023/01/11 09:09:57;;;;;;;2.50;1.70;;;;;;;-9.04;41.33;101985.44;4807165;29;20069;-83
2023/01/11 09:12:24;;;;;;;4.97;1.50;;;;;;;-9.18;41.54;101944.53;4802977;29;20521;-83
2023/01/11 09:14:50;;;;;;;2.80;1.57;;;;;;;-9.04;41.48;101958.56;4788530;30;20047;-83
2023/01/11 09:17:16;;;;;;;3.63;1.63;;;;;;;-8.96;41.07;101960.25;4788554;30;20059;-80
2023/01/11 09:19:42;;;;;;;2.10;1.10;;;;;;;-8.87;41.63;101960.31;4778250;30;20288;-82
2023/01/11 09:22:08;;;;;;;3.53;1.30;;;;;;;-8.64;41.38;101966.84;4796027;29;20053;-81
2023/01/11 09:24:34;;;;;;;2.43;1.20;;;;;;;-8.80;41.21;101944.16;4793193;29;20050;-83
2023/01/11 09:27:00;;;;;;;3.30;1.60;;;;;;;-8.72;40.84;101970.22;4775993;29;20046;-83
2023/01/11 09:29:31;;;;;;;3.93;1.37;;;;;;;-8.70;40.99;101971.25;4791441;29;20126;-81
2023/01/11 09:31:58;;;;;;;3.35;1.52;;;;;;;-8.65;41.05;101954.97;4798901;29;20070;-82
2023/01/11 09:34:26;;;;;;;3.47;1.63;;;;;;;-9.33;40.86;101834.44;4773489;29;20047;-79
2023/01/11 09:36:54;;;;;;;4.43;1.53;;;;;;;-9.38;40.97;101814.69;4788608;30;20051;-82
2023/01/11 09:39:23;;;;;;;3.57;1.60;;;;;;;-9.31;41.26;101833.88;4774598;30;20053;-83
2023/01/11 09:42:14;;;;;;;4.07;1.40;;;;;;;-8.67;41.21;101943.81;4789673;29;20071;-83
2023/01/11 09:44:56;;;;;;;5.07;1.67;;;;;;;-8.55;41.09;101929.94;4784583;30;20062;-81
2023/01/11 09:47:35;;;;;;;4.18;1.45;;;;;;;-8.40;41.54;101945.72;4804234;30;20082;-81
2023/01/11 09:50:06;;;;;;;4.60;1.52;;;;;;;-8.19;41.65;101933.47;4808485;29;20055;-81
2023/01/11 09:52:39;;;;;;;3.08;1.27;;;;;;;-8.24;41.25;101920.34;4806382;29;20047;-80
2023/01/11 09:55:15;;;;;;;3.90;1.75;;;;;;;-8.42;41.38;101880.63;4801800;30;20047;-84
2023/01/11 09:57:59;;;;;;;3.80;1.67;;;;;;;-8.38;41.62;101878.53;4805380;29;20116;-81
2023/01/11 10:00:54;;;;;;;3.45;1.30;;;;;;;-8.60;41.19;101855.34;4787235;30;20047;-81
2023/01/11 10:03:35;;;;;;;3.30;1.53;;;;;;;-8.30;41.51;101907.13;4774754;30;20047;-82
2023/01/11 10:06:11;;;;;;;4.87;1.30;;;;;;;-8.30;41.30;101962.72;4803746;30;20076;-80
2023/01/11 10:09:22;;;;;;;2.67;1.37;;;;;;;-8.49;41.25;101905.28;4805111;29;20047;-82
2023/01/11 10:11:51;;;;;;;5.00;1.70;;;;;;;-8.49;41.88;101901.88;4792087;29;20051;-80
2023/01/11 10:14:25;;;;;;;2.03;1.30;;;;;;;-8.59;41.84;101920.25;4806399;29;20043;-83
2023/01/11 10:17:06;;;;;;;3.20;1.37;;;;;;;-8.65;42.25;101929.72;4788441;30;20058;-80
2023/01/11 10:19:40;;;;;;;2.77;1.20;;;;;;;-8.76;41.75;101893.28;4804842;30;20047;-81
2023/01/11 10:22:23;;;;;;;5.00;1.50;;;;;;;-8.69;42.47;101913.38;4787680;30;20517;-83
2023/01/11 10:25:15;;;;;;;2.60;1.20;;;;;;;-8.61;42.43;101899.00;4798629;29;20035;-83
2023/01/11 10:28:00;;;;;;;2.83;1.50;;;;;;;-9.65;42.54;101728.66;4788137;30;20028;-82
2023/01/11 10:37:22;;;;;;;3.97;1.77;;;;;;;-8.80;42.84;101793.63;4798331;29;20055;-81
2023/01/11 10:40:28;;;;;;;3.27;1.80;;;;;;;-8.31;43.03;101844.72;4793426;29;20472;-81
2023/01/11 10:43:11;;;;;;;2.43;1.03;;;;;;;-8.33;42.48;101877.38;4780824;29;20058;-79
2023/01/11 10:45:46;;;;;;;3.97;2.00;;;;;;;-8.41;42.70;101858.06;4775917;30;20043;-80
2023/01/11 10:48:39;;;;;;;2.93;1.30;;;;;;;-8.61;42.83;101830.81;4788223;30;20055;-79
2023/01/11 10:51:26;;;;;;;2.77;1.07;;;;;;;-8.51;42.91;101868.91;4774899;30;20480;-81
2023/01/11 10:53:59;;;;;;;4.53;1.90;;;;;;;-8.67;43.15;101863.00;4789676;29;20050;-80
2023/01/11 10:56:34;;;;;;;2.20;1.43;;;;;;;-8.62;42.97;101844.19;4789269;29;20079;-80
2023/01/11 10:59:35;;;;;;;2.93;1.37;;;;;;;-8.61;43.36;101866.16;4790262;29;20047;-80
2023/01/11 11:02:23;;;;;;;3.10;1.40;;;;;;;-8.69;43.31;101897.31;4775055;30;20077;-81
2023/01/11 11:04:55;;;;;;;3.73;1.07;;;;;;;-8.84;43.21;101847.06;4793964;29;20055;-78
2023/01/11 11:07:43;;;;;;;3.40;1.60;;;;;;;-8.86;43.78;101833.38;4795797;30;20050;-80
2023/01/11 11:10:23;;;;;;;1.93;1.20;;;;;;;-8.56;43.54;101837.22;4780682;30;20043;-80
2023/01/11 11:13:11;;;;;;;2.73;1.40;;;;;;;-8.54;43.54;101815.56;4783465;30;20050;-79
2023/01/11 11:15:39;;;;;;;2.97;1.37;;;;;;;-8.43;43.54;101838.41;4782685;30;20440;-79
2023/01/11 11:18:10;;;;;;;4.37;1.60;;;;;;;-8.60;43.75;101792.22;4802917;29;20564;-79
2023/01/11 11:20:36;;;;;;;4.07;1.60;;;;;;;-8.68;43.53;101766.19;4805948;29;20047;-80
2023/01/11 11:23:05;;;;;;;2.43;1.47;;;;;;;-8.40;43.47;101821.97;4807945;29;20039;-79
2023/01/11 11:25:37;;;;;;;5.07;1.80;;;;;;;-8.76;43.98;101743.47;4806976;29;20055;-80
2023/01/11 11:28:14;;;;;;;2.85;1.38;;;;;;;-9.63;43.28;101591.06;4806224;29;20046;-78
2023/01/11 11:30:45;;;;;;;2.90;1.60;;;;;;;-8.26;43.52;101823.31;4792924;30;20039;-79
2023/01/11 11:33:21;;;;;;;3.60;1.45;;;;;;;-8.18;43.84;101817.38;4810067;29;20039;-80
2023/01/11 11:36:01;;;;;;;3.90;1.73;;;;;;;-8.14;43.46;101817.69;4784343;30;20389;-81
2023/01/11 11:38:32;;;;;;;3.00;1.17;;;;;;;-8.44;43.53;101774.41;4778692;30;20499;-78
2023/01/11 11:41:06;;;;;;;3.38;1.45;;;;;;;-8.27;43.68;101808.88;4809642;30;20074;-79
2023/01/11 11:43:34;;;;;;;2.23;1.70;;;;;;;-8.35;43.21;101820.75;4807870;29;20051;-81
2023/01/11 11:46:21;;;;;;;2.70;1.37;;;;;;;-8.57;43.57;101778.97;4785868;30;20556;-82
2023/01/11 11:49:14;;;;;;;2.70;1.40;;;;;;;-8.38;43.76;101820.44;4778087;30;20047;-82
2023/01/11 11:51:46;;;;;;;1.93;1.23;;;;;;;-8.44;43.42;101802.19;4794805;29;20047;-80
2023/01/11 11:54:35;;;;;;;2.80;1.30;;;;;;;-8.49;43.67;101791.63;4795357;29;20082;-83
2023/01/11 11:57:16;;;;;;;2.60;1.43;;;;;;;-8.51;43.57;101779.59;4777957;29;20047;-82
2023/01/11 11:59:50;;;;;;;2.37;1.37;;;;;;;-8.52;43.33;101783.78;4793329;29;20051;-81
2023/01/11 12:02:25;;;;;;;3.53;1.00;;;;;;;-8.47;43.59;101774.97;4791500;29;20055;-82
2023/01/11 12:04:52;;;;;;;3.53;1.73;;;;;;;-8.45;43.38;101759.06;4790919;30;20058;-82